sensor_id;sensor_type;location;lat;lon;timestamp;P1;durP1;ratioP1;P2;durP2;ratioP2
22565;SDS011;11449;51.330;19.378;2022-11-30T00:04:33;372.23;;;118.73;;
22565;SDS011;11449;51.330;19.378;2022-11-30T00:09:34;360.40;;;110.03;;
22565;SDS011;11449;51.330;19.378;2022-11-30T00:14:35;347.97;;;109.07;;
22565;SDS011;11449;51.330;19.378;2022-11-30T00:19:36;320.37;;;108.43;;
22565;SDS011;11449;51.330;19.378;2022-11-30T00:24:37;318.07;;;102.10;;
22565;SDS011;11449;51.330;19.378;2022-11-30T00:29:38;318.43;;;99.50;;
22565;SDS011;11449;51.330;19.378;2022-11-30T00:34:39;330.73;;;106.87;;
22565;SDS011;11449;51.330;19.378;2022-11-30T00:39:41;339.47;;;108.60;;
22565;SDS011;11449;51.330;19.378;2022-11-30T00:44:42;95.27;;;31.43;;
22565;SDS011;11449;51.330;19.378;2022-11-30T00:49:43;297.70;;;94.97;;
22565;SDS011;11449;51.330;19.378;2022-11-30T00:54:44;309.97;;;105.97;;
22565;SDS011;11449;51.330;19.378;2022-11-30T00:59:45;365.03;;;108.80;;
22565;SDS011;11449;51.330;19.378;2022-11-30T01:04:46;254.40;;;72.30;;
22565;SDS011;11449;51.330;19.378;2022-11-30T01:09:48;118.30;;;30.57;;
22565;SDS011;11449;51.330;19.378;2022-11-30T01:14:49;99.93;;;27.77;;
22565;SDS011;11449;51.330;19.378;2022-11-30T01:19:50;128.57;;;44.73;;
22565;SDS011;11449;51.330;19.378;2022-11-30T01:24:51;104.43;;;27.07;;
22565;SDS011;11449;51.330;19.378;2022-11-30T01:29:52;255.50;;;100.87;;
22565;SDS011;11449;51.330;19.378;2022-11-30T01:34:53;81.40;;;29.40;;
22565;SDS011;11449;51.330;19.378;2022-11-30T01:39:54;115.93;;;28.10;;
22565;SDS011;11449;51.330;19.378;2022-11-30T01:44:56;128.67;;;29.20;;
22565;SDS011;11449;51.330;19.378;2022-11-30T01:50:03;114.43;;;25.80;;
22565;SDS011;11449;51.330;19.378;2022-11-30T02:00:36;137.37;;;27.77;;
22565;SDS011;11449;51.330;19.378;2022-11-30T02:05:38;139.27;;;31.93;;
22565;SDS011;11449;51.330;19.378;2022-11-30T02:10:42;90.43;;;25.17;;
22565;SDS011;11449;51.330;19.378;2022-11-30T02:21:18;102.77;;;25.47;;
22565;SDS011;11449;51.330;19.378;2022-11-30T02:31:47;100.63;;;26.13;;
22565;SDS011;11449;51.330;19.378;2022-11-30T02:37:07;97.93;;;25.30;;
22565;SDS011;11449;51.330;19.378;2022-11-30T02:42:10;92.80;;;26.63;;
22565;SDS011;11449;51.330;19.378;2022-11-30T02:47:14;100.47;;;28.17;;
22565;SDS011;11449;51.330;19.378;2022-11-30T02:52:18;89.93;;;25.27;;
22565;SDS011;11449;51.330;19.378;2022-11-30T02:57:22;318.30;;;99.13;;
22565;SDS011;11449;51.330;19.378;2022-11-30T03:02:24;113.67;;;30.47;;
22565;SDS011;11449;51.330;19.378;2022-11-30T03:07:25;121.93;;;44.30;;
22565;SDS011;11449;51.330;19.378;2022-11-30T03:12:26;89.37;;;27.67;;
22565;SDS011;11449;51.330;19.378;2022-11-30T03:17:27;65.50;;;26.90;;
22565;SDS011;11449;51.330;19.378;2022-11-30T03:22:29;61.27;;;25.50;;
22565;SDS011;11449;51.330;19.378;2022-11-30T03:27:30;63.47;;;26.40;;
22565;SDS011;11449;51.330;19.378;2022-11-30T03:32:31;74.83;;;31.00;;
22565;SDS011;11449;51.330;19.378;2022-11-30T03:37:32;59.57;;;26.00;;
22565;SDS011;11449;51.330;19.378;2022-11-30T03:42:33;67.83;;;25.83;;
22565;SDS011;11449;51.330;19.378;2022-11-30T03:47:35;64.23;;;25.57;;
22565;SDS011;11449;51.330;19.378;2022-11-30T03:52:37;64.30;;;26.20;;
22565;SDS011;11449;51.330;19.378;2022-11-30T03:57:38;56.23;;;22.20;;
22565;SDS011;11449;51.330;19.378;2022-11-30T04:02:39;205.87;;;77.33;;
22565;SDS011;11449;51.330;19.378;2022-11-30T04:07:40;57.30;;;25.37;;
22565;SDS011;11449;51.330;19.378;2022-11-30T04:12:41;55.67;;;24.53;;
22565;SDS011;11449;51.330;19.378;2022-11-30T04:17:42;60.10;;;24.80;;
22565;SDS011;11449;51.330;19.378;2022-11-30T04:22:43;64.83;;;25.63;;
22565;SDS011;11449;51.330;19.378;2022-11-30T04:27:45;58.83;;;25.90;;
22565;SDS011;11449;51.330;19.378;2022-11-30T04:32:47;65.93;;;26.60;;
22565;SDS011;11449;51.330;19.378;2022-11-30T04:37:48;57.30;;;23.10;;
22565;SDS011;11449;51.330;19.378;2022-11-30T04:42:49;100.43;;;30.23;;
22565;SDS011;11449;51.330;19.378;2022-11-30T04:47:50;145.23;;;45.97;;
22565;SDS011;11449;51.330;19.378;2022-11-30T04:52:51;116.37;;;33.07;;
22565;SDS011;11449;51.330;19.378;2022-11-30T04:57:52;315.50;;;104.47;;
22565;SDS011;11449;51.330;19.378;2022-11-30T05:02:54;309.97;;;96.70;;
22565;SDS011;11449;51.330;19.378;2022-11-30T05:07:57;48.60;;;21.43;;
22565;SDS011;11449;51.330;19.378;2022-11-30T05:12:59;45.30;;;21.97;;
22565;SDS011;11449;51.330;19.378;2022-11-30T05:18:00;44.87;;;20.33;;
22565;SDS011;11449;51.330;19.378;2022-11-30T05:23:02;49.13;;;20.43;;
22565;SDS011;11449;51.330;19.378;2022-11-30T05:28:03;49.87;;;22.47;;
22565;SDS011;11449;51.330;19.378;2022-11-30T05:33:04;44.47;;;22.33;;
22565;SDS011;11449;51.330;19.378;2022-11-30T05:38:06;48.97;;;23.57;;
22565;SDS011;11449;51.330;19.378;2022-11-30T05:43:07;53.87;;;25.03;;
22565;SDS011;11449;51.330;19.378;2022-11-30T05:48:10;50.37;;;24.13;;
22565;SDS011;11449;51.330;19.378;2022-11-30T05:53:11;51.00;;;25.13;;
22565;SDS011;11449;51.330;19.378;2022-11-30T05:58:12;49.57;;;25.27;;
22565;SDS011;11449;51.330;19.378;2022-11-30T06:03:13;44.23;;;22.37;;
22565;SDS011;11449;51.330;19.378;2022-11-30T06:08:14;53.90;;;25.60;;
22565;SDS011;11449;51.330;19.378;2022-11-30T06:13:16;46.03;;;20.70;;
22565;SDS011;11449;51.330;19.378;2022-11-30T06:18:17;45.43;;;20.50;;
22565;SDS011;11449;51.330;19.378;2022-11-30T06:23:18;57.63;;;25.77;;
22565;SDS011;11449;51.330;19.378;2022-11-30T06:28:19;84.17;;;37.40;;
22565;SDS011;11449;51.330;19.378;2022-11-30T06:33:21;91.40;;;35.87;;
22565;SDS011;11449;51.330;19.378;2022-11-30T06:38:23;49.60;;;22.63;;
22565;SDS011;11449;51.330;19.378;2022-11-30T06:43:25;46.37;;;23.93;;
22565;SDS011;11449;51.330;19.378;2022-11-30T06:48:26;51.00;;;23.33;;
22565;SDS011;11449;51.330;19.378;2022-11-30T06:53:28;41.33;;;20.87;;
22565;SDS011;11449;51.330;19.378;2022-11-30T06:58:29;42.33;;;21.00;;
22565;SDS011;11449;51.330;19.378;2022-11-30T07:03:31;44.87;;;22.60;;
22565;SDS011;11449;51.330;19.378;2022-11-30T07:08:32;46.63;;;23.10;;
22565;SDS011;11449;51.330;19.378;2022-11-30T07:13:33;42.73;;;19.80;;
22565;SDS011;11449;51.330;19.378;2022-11-30T07:18:35;47.73;;;22.77;;
22565;SDS011;11449;51.330;19.378;2022-11-30T07:23:36;46.03;;;20.97;;
22565;SDS011;11449;51.330;19.378;2022-11-30T07:28:56;50.90;;;20.62;;
22565;SDS011;11449;51.330;19.378;2022-11-30T07:33:58;45.33;;;20.63;;
22565;SDS011;11449;51.330;19.378;2022-11-30T07:39:05;49.17;;;21.23;;
22565;SDS011;11449;51.330;19.378;2022-11-30T07:44:06;41.43;;;21.47;;
22565;SDS011;11449;51.330;19.378;2022-11-30T07:49:08;47.63;;;19.10;;
22565;SDS011;11449;51.330;19.378;2022-11-30T07:54:10;45.00;;;19.93;;
22565;SDS011;11449;51.330;19.378;2022-11-30T07:59:11;47.67;;;21.97;;
22565;SDS011;11449;51.330;19.378;2022-11-30T08:04:12;43.60;;;21.07;;
22565;SDS011;11449;51.330;19.378;2022-11-30T08:09:14;34.47;;;14.27;;
22565;SDS011;11449;51.330;19.378;2022-11-30T08:14:15;48.77;;;20.70;;
22565;SDS011;11449;51.330;19.378;2022-11-30T08:19:16;48.10;;;22.63;;
22565;SDS011;11449;51.330;19.378;2022-11-30T08:24:17;48.23;;;24.17;;
22565;SDS011;11449;51.330;19.378;2022-11-30T08:29:18;42.17;;;20.07;;
22565;SDS011;11449;51.330;19.378;2022-11-30T08:34:20;45.70;;;22.07;;
22565;SDS011;11449;51.330;19.378;2022-11-30T08:39:21;40.90;;;18.97;;
22565;SDS011;11449;51.330;19.378;2022-11-30T08:44:23;42.20;;;19.63;;
22565;SDS011;11449;51.330;19.378;2022-11-30T08:49:24;40.50;;;19.23;;
22565;SDS011;11449;51.330;19.378;2022-11-30T08:54:25;38.83;;;18.33;;
22565;SDS011;11449;51.330;19.378;2022-11-30T08:59:29;37.93;;;17.33;;
22565;SDS011;11449;51.330;19.378;2022-11-30T09:04:32;39.83;;;19.53;;
22565;SDS011;11449;51.330;19.378;2022-11-30T09:09:34;41.50;;;20.50;;
22565;SDS011;11449;51.330;19.378;2022-11-30T09:14:36;37.83;;;19.23;;
22565;SDS011;11449;51.330;19.378;2022-11-30T09:19:38;38.47;;;18.00;;
22565;SDS011;11449;51.330;19.378;2022-11-30T09:24:39;35.90;;;15.67;;
22565;SDS011;11449;51.330;19.378;2022-11-30T09:29:40;31.53;;;16.00;;
22565;SDS011;11449;51.330;19.378;2022-11-30T09:34:42;36.03;;;17.37;;
22565;SDS011;11449;51.330;19.378;2022-11-30T09:39:43;28.57;;;14.70;;
22565;SDS011;11449;51.330;19.378;2022-11-30T09:44:46;41.87;;;18.83;;
22565;SDS011;11449;51.330;19.378;2022-11-30T09:50:15;30.95;;;16.10;;
22565;SDS011;11449;51.330;19.378;2022-11-30T09:55:39;31.23;;;17.10;;
22565;SDS011;11449;51.330;19.378;2022-11-30T10:00:39;31.62;;;17.60;;
22565;SDS011;11449;51.330;19.378;2022-11-30T10:05:58;35.07;;;18.17;;
22565;SDS011;11449;51.330;19.378;2022-11-30T10:11:07;39.27;;;17.70;;
22565;SDS011;11449;51.330;19.378;2022-11-30T10:26:48;36.83;;;18.47;;
22565;SDS011;11449;51.330;19.378;2022-11-30T10:31:50;34.10;;;17.10;;
22565;SDS011;11449;51.330;19.378;2022-11-30T10:37:39;33.17;;;17.63;;
22565;SDS011;11449;51.330;19.378;2022-11-30T10:42:20;32.60;;;17.83;;
22565;SDS011;11449;51.330;19.378;2022-11-30T10:47:24;33.73;;;17.90;;
22565;SDS011;11449;51.330;19.378;2022-11-30T10:52:29;31.53;;;16.47;;
22565;SDS011;11449;51.330;19.378;2022-11-30T10:57:32;34.97;;;17.83;;
22565;SDS011;11449;51.330;19.378;2022-11-30T11:02:36;29.10;;;13.30;;
22565;SDS011;11449;51.330;19.378;2022-11-30T11:07:43;35.17;;;19.27;;
22565;SDS011;11449;51.330;19.378;2022-11-30T11:12:51;39.43;;;23.13;;
22565;SDS011;11449;51.330;19.378;2022-11-30T11:23:29;38.23;;;19.50;;
22565;SDS011;11449;51.330;19.378;2022-11-30T11:28:42;33.20;;;17.33;;
22565;SDS011;11449;51.330;19.378;2022-11-30T11:33:51;31.07;;;17.20;;
22565;SDS011;11449;51.330;19.378;2022-11-30T11:38:54;36.63;;;20.27;;
22565;SDS011;11449;51.330;19.378;2022-11-30T11:43:57;56.90;;;28.57;;
22565;SDS011;11449;51.330;19.378;2022-11-30T12:04:43;31.87;;;17.03;;
22565;SDS011;11449;51.330;19.378;2022-11-30T12:15:17;34.83;;;18.27;;
22565;SDS011;11449;51.330;19.378;2022-11-30T12:25:54;30.73;;;17.53;;
22565;SDS011;11449;51.330;19.378;2022-11-30T12:36:24;29.37;;;16.70;;
22565;SDS011;11449;51.330;19.378;2022-11-30T12:57:45;29.37;;;15.87;;
22565;SDS011;11449;51.330;19.378;2022-11-30T13:08:19;25.07;;;13.37;;
22565;SDS011;11449;51.330;19.378;2022-11-30T13:13:40;24.70;;;14.57;;
22565;SDS011;11449;51.330;19.378;2022-11-30T13:18:43;25.10;;;14.03;;
22565;SDS011;11449;51.330;19.378;2022-11-30T13:24:00;26.83;;;15.17;;
22565;SDS011;11449;51.330;19.378;2022-11-30T13:29:22;24.30;;;14.23;;
22565;SDS011;11449;51.330;19.378;2022-11-30T13:34:40;56.03;;;30.87;;
22565;SDS011;11449;51.330;19.378;2022-11-30T13:44:46;23.70;;;13.93;;
22565;SDS011;11449;51.330;19.378;2022-11-30T13:49:52;26.27;;;13.57;;
22565;SDS011;11449;51.330;19.378;2022-11-30T13:54:52;21.87;;;12.93;;
22565;SDS011;11449;51.330;19.378;2022-11-30T13:59:57;23.93;;;13.17;;
22565;SDS011;11449;51.330;19.378;2022-11-30T14:10:31;28.50;;;18.10;;
22565;SDS011;11449;51.330;19.378;2022-11-30T14:25:58;27.03;;;15.40;;
22565;SDS011;11449;51.330;19.378;2022-11-30T14:36:09;36.47;;;17.63;;
22565;SDS011;11449;51.330;19.378;2022-11-30T14:41:22;24.13;;;12.87;;
22565;SDS011;11449;51.330;19.378;2022-11-30T14:46:28;64.40;;;34.73;;
22565;SDS011;11449;51.330;19.378;2022-11-30T14:51:30;47.03;;;23.33;;
22565;SDS011;11449;51.330;19.378;2022-11-30T14:56:37;54.70;;;25.53;;
22565;SDS011;11449;51.330;19.378;2022-11-30T15:01:46;34.60;;;16.47;;
22565;SDS011;11449;51.330;19.378;2022-11-30T15:06:47;34.00;;;17.93;;
22565;SDS011;11449;51.330;19.378;2022-11-30T15:11:49;30.47;;;17.57;;
22565;SDS011;11449;51.330;19.378;2022-11-30T15:16:53;33.70;;;17.13;;
22565;SDS011;11449;51.330;19.378;2022-11-30T15:21:57;35.13;;;17.77;;
22565;SDS011;11449;51.330;19.378;2022-11-30T15:32:07;33.03;;;18.17;;
22565;SDS011;11449;51.330;19.378;2022-11-30T15:42:28;35.37;;;18.23;;
22565;SDS011;11449;51.330;19.378;2022-11-30T15:47:34;87.50;;;37.70;;
22565;SDS011;11449;51.330;19.378;2022-11-30T15:52:42;44.67;;;21.17;;
22565;SDS011;11449;51.330;19.378;2022-11-30T15:58:03;37.03;;;19.97;;
22565;SDS011;11449;51.330;19.378;2022-11-30T16:03:08;30.77;;;16.93;;
22565;SDS011;11449;51.330;19.378;2022-11-30T16:08:14;41.67;;;21.27;;
22565;SDS011;11449;51.330;19.378;2022-11-30T16:13:18;55.07;;;26.70;;
22565;SDS011;11449;51.330;19.378;2022-11-30T16:18:22;34.93;;;18.00;;
22565;SDS011;11449;51.330;19.378;2022-11-30T16:23:26;152.97;;;65.07;;
22565;SDS011;11449;51.330;19.378;2022-11-30T16:28:28;268.57;;;90.13;;
22565;SDS011;11449;51.330;19.378;2022-11-30T16:33:29;292.80;;;94.57;;
22565;SDS011;11449;51.330;19.378;2022-11-30T16:38:31;31.33;;;14.20;;
22565;SDS011;11449;51.330;19.378;2022-11-30T16:43:32;34.73;;;16.50;;
22565;SDS011;11449;51.330;19.378;2022-11-30T16:48:33;32.53;;;17.10;;
22565;SDS011;11449;51.330;19.378;2022-11-30T16:53:35;28.83;;;14.83;;
22565;SDS011;11449;51.330;19.378;2022-11-30T16:58:36;26.53;;;13.90;;
22565;SDS011;11449;51.330;19.378;2022-11-30T17:03:37;39.63;;;17.93;;
22565;SDS011;11449;51.330;19.378;2022-11-30T17:08:39;49.20;;;20.93;;
22565;SDS011;11449;51.330;19.378;2022-11-30T17:13:41;34.37;;;17.50;;
22565;SDS011;11449;51.330;19.378;2022-11-30T17:18:42;227.07;;;78.77;;
22565;SDS011;11449;51.330;19.378;2022-11-30T17:23:44;304.57;;;96.73;;
22565;SDS011;11449;51.330;19.378;2022-11-30T17:28:45;315.77;;;103.97;;
22565;SDS011;11449;51.330;19.378;2022-11-30T17:33:46;314.93;;;101.10;;
22565;SDS011;11449;51.330;19.378;2022-11-30T17:38:47;31.33;;;16.93;;
22565;SDS011;11449;51.330;19.378;2022-11-30T17:43:49;37.17;;;17.97;;
22565;SDS011;11449;51.330;19.378;2022-11-30T17:48:51;29.80;;;14.80;;
22565;SDS011;11449;51.330;19.378;2022-11-30T17:53:53;36.10;;;17.80;;
22565;SDS011;11449;51.330;19.378;2022-11-30T17:58:54;34.23;;;15.93;;
22565;SDS011;11449;51.330;19.378;2022-11-30T18:03:55;31.10;;;17.00;;
22565;SDS011;11449;51.330;19.378;2022-11-30T18:08:56;32.93;;;15.53;;
22565;SDS011;11449;51.330;19.378;2022-11-30T18:13:58;33.27;;;17.77;;
22565;SDS011;11449;51.330;19.378;2022-11-30T18:19:01;33.93;;;17.10;;
22565;SDS011;11449;51.330;19.378;2022-11-30T18:24:05;30.87;;;16.17;;
22565;SDS011;11449;51.330;19.378;2022-11-30T18:29:08;50.30;;;28.50;;
22565;SDS011;11449;51.330;19.378;2022-11-30T18:34:10;40.67;;;21.37;;
22565;SDS011;11449;51.330;19.378;2022-11-30T18:39:11;38.90;;;20.20;;
22565;SDS011;11449;51.330;19.378;2022-11-30T18:44:12;40.17;;;19.57;;
22565;SDS011;11449;51.330;19.378;2022-11-30T18:49:13;46.00;;;22.87;;
22565;SDS011;11449;51.330;19.378;2022-11-30T18:54:16;43.43;;;21.93;;
22565;SDS011;11449;51.330;19.378;2022-11-30T18:59:18;52.30;;;24.07;;
22565;SDS011;11449;51.330;19.378;2022-11-30T19:04:22;49.83;;;23.50;;
22565;SDS011;11449;51.330;19.378;2022-11-30T19:09:24;56.40;;;26.47;;
22565;SDS011;11449;51.330;19.378;2022-11-30T19:14:25;55.23;;;27.77;;
22565;SDS011;11449;51.330;19.378;2022-11-30T19:19:27;54.27;;;27.83;;
22565;SDS011;11449;51.330;19.378;2022-11-30T19:24:29;49.93;;;24.10;;
22565;SDS011;11449;51.330;19.378;2022-11-30T19:29:30;55.37;;;24.43;;
22565;SDS011;11449;51.330;19.378;2022-11-30T19:34:31;52.57;;;23.57;;
22565;SDS011;11449;51.330;19.378;2022-11-30T19:39:33;51.73;;;24.57;;
22565;SDS011;11449;51.330;19.378;2022-11-30T19:44:34;44.80;;;22.17;;
22565;SDS011;11449;51.330;19.378;2022-11-30T19:49:36;42.23;;;21.97;;
22565;SDS011;11449;51.330;19.378;2022-11-30T19:54:37;51.97;;;26.90;;
22565;SDS011;11449;51.330;19.378;2022-11-30T19:59:39;57.07;;;28.27;;
22565;SDS011;11449;51.330;19.378;2022-11-30T20:04:40;58.53;;;28.27;;
22565;SDS011;11449;51.330;19.378;2022-11-30T20:09:41;60.33;;;27.93;;
22565;SDS011;11449;51.330;19.378;2022-11-30T20:14:43;76.80;;;33.93;;
22565;SDS011;11449;51.330;19.378;2022-11-30T20:19:45;94.73;;;39.40;;
22565;SDS011;11449;51.330;19.378;2022-11-30T20:24:46;69.90;;;31.63;;
22565;SDS011;11449;51.330;19.378;2022-11-30T20:29:50;92.03;;;37.83;;
22565;SDS011;11449;51.330;19.378;2022-11-30T20:34:52;303.17;;;106.40;;
22565;SDS011;11449;51.330;19.378;2022-11-30T20:39:53;63.47;;;29.33;;
22565;SDS011;11449;51.330;19.378;2022-11-30T20:44:54;80.63;;;39.07;;
22565;SDS011;11449;51.330;19.378;2022-11-30T20:49:55;70.17;;;34.40;;
22565;SDS011;11449;51.330;19.378;2022-11-30T20:54:57;90.60;;;42.60;;
22565;SDS011;11449;51.330;19.378;2022-11-30T20:59:58;79.13;;;39.77;;
22565;SDS011;11449;51.330;19.378;2022-11-30T21:04:59;52.30;;;26.47;;
22565;SDS011;11449;51.330;19.378;2022-11-30T21:10:00;48.47;;;23.50;;
22565;SDS011;11449;51.330;19.378;2022-11-30T21:15:01;46.60;;;23.87;;
22565;SDS011;11449;51.330;19.378;2022-11-30T21:20:04;48.87;;;23.03;;
22565;SDS011;11449;51.330;19.378;2022-11-30T21:25:06;63.70;;;28.87;;
22565;SDS011;11449;51.330;19.378;2022-11-30T21:30:08;69.40;;;29.57;;
22565;SDS011;11449;51.330;19.378;2022-11-30T21:35:10;50.23;;;23.97;;
22565;SDS011;11449;51.330;19.378;2022-11-30T21:40:12;48.00;;;24.67;;
22565;SDS011;11449;51.330;19.378;2022-11-30T21:45:13;42.07;;;21.93;;
22565;SDS011;11449;51.330;19.378;2022-11-30T21:50:14;40.00;;;20.47;;
22565;SDS011;11449;51.330;19.378;2022-11-30T21:55:16;46.73;;;23.33;;
22565;SDS011;11449;51.330;19.378;2022-11-30T22:00:17;39.47;;;20.63;;
22565;SDS011;11449;51.330;19.378;2022-11-30T22:05:19;38.83;;;20.77;;
22565;SDS011;11449;51.330;19.378;2022-11-30T22:10:20;40.43;;;21.40;;
22565;SDS011;11449;51.330;19.378;2022-11-30T22:15:21;37.30;;;19.23;;
22565;SDS011;11449;51.330;19.378;2022-11-30T22:20:22;32.00;;;17.53;;
22565;SDS011;11449;51.330;19.378;2022-11-30T22:25:24;31.90;;;17.67;;
22565;SDS011;11449;51.330;19.378;2022-11-30T22:30:25;36.07;;;20.20;;
22565;SDS011;11449;51.330;19.378;2022-11-30T22:35:26;40.03;;;19.30;;
22565;SDS011;11449;51.330;19.378;2022-11-30T22:40:27;40.90;;;23.27;;
22565;SDS011;11449;51.330;19.378;2022-11-30T22:45:29;43.17;;;21.83;;
22565;SDS011;11449;51.330;19.378;2022-11-30T22:50:32;34.03;;;17.67;;
22565;SDS011;11449;51.330;19.378;2022-11-30T22:55:34;34.20;;;18.87;;
22565;SDS011;11449;51.330;19.378;2022-11-30T23:00:36;28.90;;;15.27;;
22565;SDS011;11449;51.330;19.378;2022-11-30T23:05:37;24.27;;;14.37;;
22565;SDS011;11449;51.330;19.378;2022-11-30T23:10:38;23.47;;;13.50;;
22565;SDS011;11449;51.330;19.378;2022-11-30T23:15:39;27.23;;;14.07;;
22565;SDS011;11449;51.330;19.378;2022-11-30T23:20:40;26.27;;;14.03;;
22565;SDS011;11449;51.330;19.378;2022-11-30T23:25:42;25.13;;;14.33;;
22565;SDS011;11449;51.330;19.378;2022-11-30T23:30:43;24.77;;;14.20;;
22565;SDS011;11449;51.330;19.378;2022-11-30T23:35:44;22.77;;;12.97;;
22565;SDS011;11449;51.330;19.378;2022-11-30T23:40:45;26.17;;;15.17;;
22565;SDS011;11449;51.330;19.378;2022-11-30T23:45:46;35.67;;;16.57;;
22565;SDS011;11449;51.330;19.378;2022-11-30T23:50:47;40.83;;;17.57;;
22565;SDS011;11449;51.330;19.378;2022-11-30T23:55:48;50.93;;;19.47;;
